Time;durP1;ratioP1;P1;durP2;ratioP2;P2;SDS_P1;SDS_P2;PMS_P1;PMS_P2;Temp;Humidity;BMP_temperature;BMP_pressure;BME280_temperature;BME280_humidity;BME280_pressure;Samples;Min_cycle;Max_cycle;Signal;HPM_P1;HPM_P2
2023/07/21 00:01:57;;;;;;;;;;;;;;;;;;;;;
2023/07/21 00:05:20;;;;;;;71.28;66.95;;;12.60;76.40;;;;;;6099143;23;20021;-92
2023/07/21 00:08:03;;;;;;;91.97;86.85;;;12.50;76.60;;;;;;6118111;23;20229;-92
2023/07/21 00:10:56;;;;;;;;;;;;;;;;;;;;;
2023/07/21 00:13:59;;;;;;;81.88;76.97;;;12.50;76.60;;;;;;6117027;23;20017;-92
2023/07/21 00:16:55;;;;;;;;;;;;;;;;;;;;;
2023/07/21 00:19:46;;;;;;;;;;;;;;;;;;;;;
2023/07/21 00:22:19;;;;;;;47.47;44.40;;;12.50;76.30;;;;;;6118345;23;20030;-91
2023/07/21 00:25:09;;;;;;;82.80;78.00;;;12.50;76.20;;;;;;6104288;23;20026;-91
2023/07/21 00:28:36;;;;;;;126.75;119.80;;;12.50;76.20;;;;;;6089845;23;20018;-92
2023/07/21 00:31:09;;;;;;;47.95;44.60;;;12.50;76.00;;;;;;6141761;23;20016;-93
2023/07/21 00:34:14;;;;;;;66.32;62.22;;;12.40;76.10;;;;;;6121591;23;20025;-92
2023/07/21 00:36:47;;;;;;;49.88;46.78;;;12.40;76.10;;;;;;6122410;23;20040;-93
2023/07/21 00:42:56;;;;;;;;;;;;;;;;;;;;;
2023/07/21 00:46:00;;;;;;;;;;;;;;;;;;;;;
2023/07/21 00:48:49;;;;;;;14.15;12.75;;;12.20;76.30;;;;;;6030213;23;19917;-92
2023/07/21 00:51:38;;;;;;;23.13;21.10;;;12.10;76.40;;;;;;6130966;23;20016;-92
2023/07/21 00:54:30;;;;;;;38.50;35.67;;;12.10;76.40;;;;;;6132839;23;20025;-91
2023/07/21 00:57:08;;;;;;;;;;;;;;;;;;;;;
2023/07/21 01:00:00;;;;;;;49.83;46.53;;;12.00;76.50;;;;;;6138471;23;20029;-92
2023/07/21 01:02:49;;;;;;;38.75;36.03;;;12.00;76.70;;;;;;6130084;23;20695;-91
2023/07/21 01:06:37;;;;;;;;;;;;;;;;;;;;;
2023/07/21 01:08:44;;;;;;;;;;;;;;;;;;;;;
2023/07/21 01:11:21;;;;;;;44.03;41.10;;;11.90;77.00;;;;;;6064013;23;20036;-92
2023/07/21 01:18:42;;;;;;;21.48;19.75;;;11.90;77.20;;;;;;6021151;23;20032;-92
2023/07/21 01:21:23;;;;;;;;;;;;;;;;;;;;;
2023/07/21 01:24:55;;;;;;;;;;;;;;;;;;;;;
2023/07/21 01:27:51;;;;;;;22.80;20.80;;;11.90;78.10;;;;;;6101378;23;20021;-92
2023/07/21 01:30:34;;;;;;;22.42;20.58;;;11.90;78.40;;;;;;6143743;23;20076;-92
2023/07/21 01:40:23;;;;;;;17.02;9.00;;;11.80;79.00;;;;;;6115313;23;19916;-92
2023/07/21 01:43:25;;;;;;;;;;;;;;;;;;;;;
2023/07/21 01:46:08;;;;;;;;;;;;;;;;;;;;;
2023/07/21 01:56:13;;;;;;;14.10;12.68;;;11.80;78.40;;;;;;6097408;23;20405;-92
2023/07/21 01:59:16;;;;;;;18.50;16.70;;;11.90;78.20;;;;;;6162094;23;20080;-92
2023/07/21 02:02:04;;;;;;;20.83;18.20;;;11.80;78.10;;;;;;6133226;23;20104;-92
2023/07/21 02:08:20;;;;;;;14.55;12.15;;;11.80;78.30;;;;;;6043893;23;20104;-92
2023/07/21 02:10:54;;;;;;;18.38;16.58;;;11.70;78.00;;;;;;6086775;23;20425;-92
2023/07/21 02:13:36;;;;;;;;;;;;;;;;;;;;;
2023/07/21 02:16:33;;;;;;;;;;;;;;;;;;;;;
2023/07/21 02:19:06;;;;;;;33.83;30.98;;;11.50;78.10;;;;;;6128636;23;20056;-93
2023/07/21 02:22:10;;;;;;;;;;;;;;;;;;;;;
2023/07/21 02:29:53;;;;;;;;;;;;;;;;;;;;;
2023/07/21 02:36:42;;;;;;;10.38;7.78;;;11.30;78.30;;;;;;5899653;24;20032;-95
2023/07/21 02:42:10;;;;;;;;;;;;;;;;;;;;;
2023/07/21 02:45:23;;;;;;;;;;;;;;;;;;;;;
2023/07/21 02:48:08;;;;;;;;;;;;;;;;;;;;;
2023/07/21 02:52:08;;;;;;;9.73;8.02;;;10.70;77.70;;;;;;6186775;23;20017;-92
2023/07/21 02:54:46;;;;;;;;;;;;;;;;;;;;;
2023/07/21 03:01:44;;;;;;;;;;;;;;;;;;;;;
2023/07/21 03:07:43;;;;;;;15.88;11.30;;;10.50;78.20;;;;;;6092571;23;20025;-92
2023/07/21 03:10:31;;;;;;;;;;;;;;;;;;;;;
2023/07/21 03:16:37;;;;;;;11.57;8.45;;;10.70;78.50;;;;;;6202648;23;20029;-94
2023/07/21 03:19:08;;;;;;;15.57;9.85;;;10.70;78.00;;;;;;6121048;23;20021;-91
2023/07/21 03:25:08;;;;;;;12.27;8.90;;;10.70;78.20;;;;;;5937639;24;20065;-92
2023/07/21 03:27:44;;;;;;;13.85;9.55;;;10.70;78.30;;;;;;5914605;24;20099;-92
2023/07/21 03:30:38;;;;;;;;;;;;;;;;;;;;;
2023/07/21 03:37:17;;;;;;;9.10;6.13;;;10.50;77.80;;;;;;5993157;23;20363;-95
2023/07/21 03:40:44;;;;;;;;;;;;;;;;;;;;;
2023/07/21 03:54:08;;;;;;;;;;;;;;;;;;;;;
2023/07/21 03:56:54;;;;;;;12.30;8.38;;;10.40;79.30;;;;;;6082578;23;20817;-95
2023/07/21 03:59:52;;;;;;;;;;;;;;;;;;;;;
2023/07/21 04:02:51;;;;;;;13.43;10.55;;;10.50;79.40;;;;;;6082417;23;20022;-92
2023/07/21 04:09:18;;;;;;;;;;;;;;;;;;;;;
2023/07/21 04:15:35;;;;;;;13.32;9.48;;;10.70;79.60;;;;;;5936715;23;20103;-92
2023/07/21 04:18:40;;;;;;;;;;;;;;;;;;;;;
2023/07/21 04:21:45;;;;;;;12.57;8.35;;;10.80;79.20;;;;;;6142223;23;20025;-92
2023/07/21 04:27:52;;;;;;;;;;;;;;;;;;;;;
2023/07/21 04:31:31;;;;;;;;;;;;;;;;;;;;;
2023/07/21 04:34:30;;;;;;;16.80;8.23;;;11.00;79.30;;;;;;6080720;23;20049;-92
2023/07/21 04:45:45;;;;;;;;;;;;;;;;;;;;;
2023/07/21 04:49:17;;;;;;;;;;;;;;;;;;;;;
2023/07/21 04:52:52;;;;;;;;;;;;;;;;;;;;;
2023/07/21 04:59:33;;;;;;;;;;;;;;;;;;;;;
2023/07/21 05:02:34;;;;;;;;;;;;;;;;;;;;;
2023/07/21 05:05:44;;;;;;;;;;;;;;;;;;;;;
2023/07/21 05:09:15;;;;;;;;;;;;;;;;;;;;;
2023/07/21 06:56:59;;;;;;;303.55;285.33;;;15.40;75.50;;;;;;5644236;22;15079375;-94
2023/07/21 06:59:27;;;;;;;286.58;269.98;;;15.50;75.10;;;;;;6097844;23;20134;-92
2023/07/21 07:02:48;;;;;;;;;;;;;;;;;;;;;
2023/07/21 08:14:27;;;;;;;245.50;231.43;;;16.60;70.90;;;;;;6161607;23;20024;-92
2023/07/21 08:17:18;;;;;;;;;;;;;;;;;;;;;
2023/07/21 08:20:33;;;;;;;276.27;259.38;;;16.70;70.70;;;;;;6282315;22;20027;-90
2023/07/21 08:23:23;;;;;;;;;;;;;;;;;;;;;
2023/07/21 08:29:04;;;;;;;265.52;249.27;;;16.90;69.50;;;;;;6241144;22;20017;-91
2023/07/21 08:32:17;;;;;;;265.35;249.30;;;16.90;69.20;;;;;;6275581;22;20056;-93
2023/07/21 08:35:06;;;;;;;270.23;253.93;;;16.90;69.50;;;;;;6259510;22;20104;-94
2023/07/21 08:41:24;;;;;;;256.73;241.45;;;17.10;69.50;;;;;;6264480;22;20030;-92
2023/07/21 08:44:54;;;;;;;;;;;;;;;;;;;;;
2023/07/21 08:48:43;;;;;;;;;;;;;;;;;;;;;
2023/07/21 08:55:51;;;;;;;274.02;256.88;;;17.70;68.60;;;;;;6057417;23;20022;-91
2023/07/21 08:58:39;;;;;;;416.50;383.08;;;17.90;69.00;;;;;;6030166;23;20485;-91
2023/07/21 09:05:48;;;;;;;;;;;;;;;;;;;;;
2023/07/21 10:01:21;;;;;;;;;;;;;;;;;;;;;
2023/07/21 10:04:38;;;;;;;;;;;;;;;;;;;;;
2023/07/21 10:07:06;;;;;;;309.67;289.80;;;18.40;63.40;;;;;;6206462;22;20011;-90
2023/07/21 10:09:53;;;;;;;318.27;296.98;;;18.40;63.70;;;;;;6243284;22;20019;-94
2023/07/21 10:12:21;;;;;;;305.52;286.25;;;18.60;61.50;;;;;;6204590;22;20015;-88
2023/07/21 10:14:55;;;;;;;354.63;330.17;;;18.60;62.10;;;;;;6216152;22;20377;-91
2023/07/21 10:18:13;;;;;;;366.20;338.65;;;18.70;62.40;;;;;;6210608;22;20077;-91
2023/07/21 10:21:08;;;;;;;243.18;228.55;;;18.70;60.60;;;;;;6212666;22;20837;-89
2023/07/21 10:23:50;;;;;;;;;;;;;;;;;;;;;
2023/07/21 10:26:49;;;;;;;337.85;315.67;;;18.70;62.20;;;;;;6258555;22;20016;-90
2023/07/21 10:29:21;;;;;;;377.38;353.75;;;18.70;62.80;;;;;;6229773;22;20055;-90
2023/07/21 10:31:57;;;;;;;325.80;303.85;;;18.70;62.80;;;;;;6209664;22;20020;-89
2023/07/21 10:34:39;;;;;;;373.35;346.08;;;18.70;63.00;;;;;;6203583;22;20099;-91
2023/07/21 10:37:13;;;;;;;345.40;322.40;;;18.80;63.20;;;;;;6229060;22;20661;-90
2023/07/21 10:39:51;;;;;;;363.92;338.15;;;18.80;63.70;;;;;;6234580;22;20084;-88
2023/07/21 10:42:17;;;;;;;354.33;329.42;;;18.80;63.70;;;;;;6219761;22;20571;-90
2023/07/21 10:45:07;;;;;;;470.95;438.52;;;18.90;63.40;;;;;;6207593;22;20012;-90
2023/07/21 10:47:53;;;;;;;300.75;280.48;;;19.00;63.90;;;;;;6207793;22;20030;-89
2023/07/21 10:51:00;;;;;;;376.63;349.70;;;19.10;62.80;;;;;;6235450;22;20020;-92
2023/07/21 10:53:26;;;;;;;368.40;342.08;;;19.10;63.80;;;;;;6224918;22;20453;-88
2023/07/21 10:56:00;;;;;;;422.00;389.77;;;19.10;62.20;;;;;;6234620;22;20016;-91
2023/07/21 10:58:45;;;;;;;426.30;393.13;;;19.00;62.90;;;;;;6217434;22;20019;-90
2023/07/21 11:01:11;;;;;;;401.42;371.48;;;19.00;63.60;;;;;;6234098;22;20027;-90
2023/07/21 11:03:48;;;;;;;403.98;373.75;;;19.00;63.60;;;;;;6164700;22;20026;-92
2023/07/21 11:06:16;;;;;;;381.67;354.67;;;19.00;62.60;;;;;;6262614;22;20022;-89
2023/07/21 11:08:43;;;;;;;390.80;361.98;;;19.00;62.80;;;;;;6225653;22;20023;-88
2023/07/21 11:11:09;;;;;;;396.13;366.63;;;19.10;63.20;;;;;;6235731;22;20024;-88
2023/07/21 11:13:38;;;;;;;403.65;372.02;;;19.20;63.20;;;;;;6263131;22;20663;-90
2023/07/21 11:16:04;;;;;;;399.40;371.13;;;19.30;62.10;;;;;;6262153;22;20024;-88
2023/07/21 11:18:30;;;;;;;413.98;383.17;;;19.40;62.50;;;;;;6258144;22;20019;-87
2023/07/21 11:20:56;;;;;;;374.50;348.50;;;19.50;62.30;;;;;;6263013;22;20149;-87
2023/07/21 11:23:23;;;;;;;358.08;332.77;;;19.50;60.20;;;;;;6233096;22;20032;-90
2023/07/21 11:26:12;;;;;;;376.05;348.90;;;19.50;59.90;;;;;;6265764;22;20346;-91
2023/07/21 11:28:43;;;;;;;554.85;503.52;;;19.50;60.50;;;;;;6207747;22;20027;-89
2023/07/21 11:31:13;;;;;;;397.98;365.00;;;19.70;60.10;;;;;;6265564;22;20099;-85
2023/07/21 11:33:43;;;;;;;402.95;373.23;;;19.70;60.50;;;;;;6253792;22;20106;-89
2023/07/21 11:36:19;;;;;;;393.30;364.58;;;19.80;59.50;;;;;;6265012;22;20023;-90
2023/07/21 11:39:02;;;;;;;423.92;390.85;;;19.80;59.40;;;;;;6262474;22;20023;-93
2023/07/21 11:41:40;;;;;;;381.25;353.25;;;19.90;59.50;;;;;;6263100;22;20023;-91
2023/07/21 11:44:11;;;;;;;375.30;348.13;;;19.90;59.00;;;;;;6260795;22;20038;-89
2023/07/21 11:46:37;;;;;;;;;;;19.70;59.10;;;;;;6234902;22;20085;-90
2023/07/21 11:49:10;;;;;;;368.55;342.70;;;19.70;58.80;;;;;;6238031;22;19919;-90
2023/07/21 11:51:51;;;;;;;422.17;389.90;;;19.70;59.80;;;;;;6263121;22;20020;-94
2023/07/21 11:54:26;;;;;;;472.50;433.75;;;19.50;61.40;;;;;;6235627;22;20020;-91
2023/07/21 11:56:56;;;;;;;503.20;461.55;;;19.20;63.30;;;;;;6258753;22;20468;-90
2023/07/21 11:59:44;;;;;;;509.67;467.77;;;18.90;63.90;;;;;;6258648;22;20019;-91
2023/07/21 12:02:14;;;;;;;521.03;478.48;;;18.50;64.90;;;;;;6246401;22;20024;-90
2023/07/21 12:04:39;;;;;;;486.88;454.17;;;18.10;65.90;;;;;;6237554;22;20047;-90
2023/07/21 12:07:08;;;;;;;517.92;475.65;;;18.00;66.50;;;;;;6218540;22;20012;-90
2023/07/21 12:09:38;;;;;;;470.25;434.55;;;17.90;67.50;;;;;;6233898;22;20031;-92
2023/07/21 12:12:07;;;;;;;470.67;436.80;;;17.80;67.60;;;;;;6200763;22;20023;-90
2023/07/21 12:14:36;;;;;;;395.52;369.13;;;17.80;68.30;;;;;;6246959;22;20023;-90
2023/07/21 12:17:02;;;;;;;391.40;365.48;;;17.60;68.50;;;;;;6231142;22;20832;-90
2023/07/21 12:19:28;;;;;;;404.40;376.83;;;17.50;68.60;;;;;;6232556;22;20031;-91
2023/07/21 12:21:57;;;;;;;397.48;371.05;;;17.50;68.70;;;;;;6235149;22;20027;-92
2023/07/21 12:24:23;;;;;;;363.15;339.55;;;17.60;68.90;;;;;;6209779;22;20818;-90
2023/07/21 12:26:52;;;;;;;401.00;372.98;;;17.60;68.70;;;;;;6228400;22;20012;-91
2023/07/21 12:29:24;;;;;;;497.20;455.90;;;17.60;68.90;;;;;;6205465;22;20024;-91
2023/07/21 12:31:52;;;;;;;428.38;395.33;;;17.80;68.90;;;;;;6233562;22;20030;-91
2023/07/21 12:34:21;;;;;;;361.13;335.00;;;17.80;68.90;;;;;;6204682;22;20736;-90
2023/07/21 12:36:47;;;;;;;424.33;391.73;;;17.70;69.10;;;;;;6202271;22;20086;-91
2023/07/21 12:42:27;;;;;;;348.75;325.00;;;17.50;69.10;;;;;;6191519;22;20096;-89
2023/07/21 12:44:54;;;;;;;391.77;362.98;;;17.40;69.20;;;;;;6233224;22;20024;-90
2023/07/21 12:47:20;;;;;;;497.73;455.15;;;17.20;69.20;;;;;;6202787;22;20023;-92
2023/07/21 12:49:46;;;;;;;400.00;371.70;;;16.90;69.90;;;;;;6232655;22;20037;-92
2023/07/21 12:52:12;;;;;;;518.72;475.73;;;16.60;70.40;;;;;;6230921;22;20029;-88
2023/07/21 12:54:46;;;;;;;467.83;430.77;;;16.20;72.70;;;;;;6232341;22;20090;-93
2023/07/21 12:57:12;;;;;;;373.60;351.88;;;15.80;73.60;;;;;;6190170;22;20024;-88
2023/07/21 12:59:38;;;;;;;308.58;290.98;;;15.40;75.00;;;;;;6284532;22;20027;-87
2023/07/21 13:02:06;;;;;;;272.55;257.88;;;15.00;75.90;;;;;;6256738;22;20020;-89
2023/07/21 13:04:32;;;;;;;432.48;401.65;;;14.80;76.20;;;;;;6234731;22;20015;-90
2023/07/21 13:06:58;;;;;;;377.05;351.70;;;14.70;76.20;;;;;;6255935;22;20114;-92
2023/07/21 13:09:27;;;;;;;372.98;348.48;;;14.50;76.60;;;;;;6233928;22;20082;-92
2023/07/21 13:11:56;;;;;;;373.40;348.92;;;14.40;76.50;;;;;;6260996;22;20020;-89
2023/07/21 13:14:24;;;;;;;192.95;182.13;;;14.30;77.00;;;;;;6232906;22;20104;-87
2023/07/21 13:16:52;;;;;;;339.15;318.45;;;14.20;77.40;;;;;;6229524;22;20058;-93
2023/07/21 13:19:18;;;;;;;323.30;303.63;;;14.10;77.30;;;;;;6232493;22;20032;-89
2023/07/21 13:21:47;;;;;;;332.30;312.42;;;14.10;77.30;;;;;;6235324;22;20020;-90
2023/07/21 13:24:16;;;;;;;322.60;303.13;;;14.00;77.00;;;;;;6221967;22;20027;-89
2023/07/21 13:26:50;;;;;;;314.77;295.35;;;14.00;77.50;;;;;;6179703;22;20015;-90
2023/07/21 13:29:16;;;;;;;348.50;326.08;;;14.00;77.70;;;;;;6178094;22;20470;-91
2023/07/21 13:31:42;;;;;;;282.25;265.45;;;14.00;78.10;;;;;;6210093;22;20024;-91
2023/07/21 13:34:07;;;;;;;251.82;237.60;;;14.00;78.70;;;;;;6231156;22;20028;-92
2023/07/21 13:36:33;;;;;;;246.30;232.38;;;14.00;78.70;;;;;;6206441;22;20012;-91
2023/07/21 13:38:59;;;;;;;235.48;221.93;;;14.00;78.50;;;;;;6232507;22;20055;-91
2023/07/21 13:41:25;;;;;;;205.73;194.68;;;14.10;78.40;;;;;;6261746;22;20020;-89
2023/07/21 13:43:53;;;;;;;193.70;183.10;;;14.10;78.80;;;;;;6230850;22;20031;-88
2023/07/21 13:46:21;;;;;;;300.13;282.00;;;14.10;78.30;;;;;;6258714;22;20015;-90
2023/07/21 13:48:50;;;;;;;245.82;232.27;;;14.20;78.50;;;;;;6229643;22;20044;-90
2023/07/21 13:51:16;;;;;;;263.55;248.70;;;14.20;78.90;;;;;;6234777;22;20020;-91
2023/07/21 13:53:42;;;;;;;255.48;241.43;;;14.20;79.00;;;;;;6221757;22;20023;-89
2023/07/21 13:56:08;;;;;;;256.95;242.68;;;14.30;79.40;;;;;;6234141;22;20023;-93
2023/07/21 13:58:34;;;;;;;301.90;285.05;;;14.30;79.30;;;;;;6202841;22;20105;-90
2023/07/21 14:01:03;;;;;;;296.13;280.65;;;14.40;79.60;;;;;;6209656;22;20467;-93
2023/07/21 14:03:29;;;;;;;249.82;235.70;;;14.40;79.70;;;;;;6221809;22;20034;-91
2023/07/21 14:06:03;;;;;;;280.88;265.48;;;14.40;79.70;;;;;;6236828;22;20065;-92
2023/07/21 14:08:30;;;;;;;281.70;266.02;;;14.50;79.60;;;;;;6229922;22;20015;-90
2023/07/21 14:10:56;;;;;;;237.48;223.52;;;14.50;79.30;;;;;;6236251;22;20083;-91
2023/07/21 14:13:22;;;;;;;239.07;224.77;;;14.50;79.30;;;;;;6235853;22;20073;-91
2023/07/21 14:15:53;;;;;;;273.00;258.15;;;14.50;79.10;;;;;;6235411;22;20022;-91
2023/07/21 14:18:22;;;;;;;289.97;274.00;;;14.50;79.50;;;;;;6229149;22;20031;-91
2023/07/21 14:20:48;;;;;;;270.73;255.43;;;14.50;79.50;;;;;;6237186;22;20019;-89
2023/07/21 14:23:14;;;;;;;229.77;216.48;;;14.60;79.40;;;;;;6220780;22;20034;-91
2023/07/21 14:25:40;;;;;;;275.92;258.27;;;14.60;79.10;;;;;;6236694;22;20019;-91
2023/07/21 14:28:08;;;;;;;201.73;190.73;;;14.70;79.20;;;;;;6211854;22;20033;-88
2023/07/21 14:30:37;;;;;;;291.30;272.90;;;14.70;79.30;;;;;;6235430;22;20023;-90
2023/07/21 14:33:06;;;;;;;290.17;271.85;;;14.70;78.90;;;;;;6206221;22;20035;-93
2023/07/21 14:39:09;;;;;;;251.13;236.73;;;14.80;78.80;;;;;;6131028;23;20459;-95
2023/07/21 14:42:26;;;;;;;249.70;234.18;;;14.80;79.40;;;;;;6098063;23;20021;-93
2023/07/21 14:45:24;;;;;;;243.32;229.00;;;14.80;79.70;;;;;;6119272;23;20032;-89
2023/07/21 14:47:55;;;;;;;231.52;218.30;;;14.80;79.50;;;;;;6104667;23;20084;-94
2023/07/21 14:50:40;;;;;;;260.45;244.48;;;14.90;79.10;;;;;;6126227;23;20506;-92
2023/07/21 14:53:09;;;;;;;285.13;266.90;;;15.00;79.00;;;;;;6188759;22;20039;-90
2023/07/21 14:55:44;;;;;;;311.35;290.75;;;15.00;79.10;;;;;;6236400;22;20319;-92
2023/07/21 14:58:10;;;;;;;328.50;309.40;;;15.20;78.80;;;;;;6199635;22;20504;-91
2023/07/21 15:00:36;;;;;;;333.65;314.05;;;15.30;79.00;;;;;;6234042;22;20026;-89
2023/07/21 15:03:02;;;;;;;375.40;349.77;;;15.40;79.10;;;;;;6261258;22;20099;-90
2023/07/21 15:05:46;;;;;;;397.15;370.33;;;15.50;78.30;;;;;;6237356;22;20043;-91
2023/07/21 15:08:12;;;;;;;401.27;374.63;;;15.60;77.50;;;;;;6219637;22;20027;-90
2023/07/21 15:10:38;;;;;;;443.75;412.70;;;15.70;77.50;;;;;;6210459;22;20307;-90
2023/07/21 15:13:09;;;;;;;402.60;376.30;;;15.80;77.10;;;;;;6262827;22;20731;-90
2023/07/21 15:15:35;;;;;;;;;;;15.80;76.50;;;;;;6236652;22;20438;-87
2023/07/21 15:18:02;;;;;;;361.67;338.02;;;15.80;76.20;;;;;;6216842;22;19922;-88
2023/07/21 15:20:28;;;;;;;388.55;362.95;;;16.00;76.20;;;;;;6234665;22;20026;-90
2023/07/21 15:22:54;;;;;;;398.48;372.60;;;16.00;75.40;;;;;;6232579;22;20020;-90
2023/07/21 15:25:21;;;;;;;405.20;377.52;;;16.00;74.80;;;;;;6260218;22;20019;-90
2023/07/21 15:27:49;;;;;;;420.60;393.20;;;16.10;75.90;;;;;;6184978;22;20093;-88
2023/07/21 15:30:18;;;;;;;405.77;379.02;;;16.10;75.50;;;;;;6244904;22;20019;-89
2023/07/21 15:32:47;;;;;;;416.75;389.10;;;16.10;75.10;;;;;;6259831;22;20019;-87
2023/07/21 15:35:13;;;;;;;414.90;386.70;;;16.10;74.10;;;;;;6259096;22;20108;-91
2023/07/21 15:37:42;;;;;;;402.50;375.95;;;16.10;74.90;;;;;;6231034;22;20085;-89
2023/07/21 15:40:11;;;;;;;401.00;374.55;;;16.10;75.10;;;;;;6233371;22;20023;-89
2023/07/21 15:42:41;;;;;;;410.55;382.92;;;16.20;75.20;;;;;;6233318;22;20027;-90
2023/07/21 15:45:08;;;;;;;402.95;376.58;;;16.20;75.10;;;;;;6262378;22;20016;-88
2023/07/21 15:47:33;;;;;;;406.65;379.38;;;16.20;75.10;;;;;;6226935;22;20696;-90
2023/07/21 15:50:11;;;;;;;411.70;384.33;;;16.20;75.30;;;;;;6236804;22;20107;-91
2023/07/21 15:52:57;;;;;;;401.92;375.10;;;16.30;75.10;;;;;;6249675;22;20023;-89
2023/07/21 15:55:23;;;;;;;413.80;386.05;;;16.40;75.00;;;;;;6287205;22;20528;-90
2023/07/21 15:57:49;;;;;;;525.40;482.65;;;16.40;74.70;;;;;;6255536;22;20070;-88
2023/07/21 16:00:18;;;;;;;377.23;353.08;;;16.60;74.30;;;;;;6237917;22;20024;-91
2023/07/21 16:02:48;;;;;;;412.75;382.20;;;16.60;73.70;;;;;;6261814;22;20031;-89
2023/07/21 16:05:18;;;;;;;326.65;306.52;;;16.70;72.50;;;;;;6238164;22;20337;-89
2023/07/21 16:07:47;;;;;;;364.75;341.65;;;16.70;72.20;;;;;;6256243;22;20131;-87
2023/07/21 16:10:13;;;;;;;295.27;277.42;;;16.80;72.40;;;;;;6236660;22;20022;-88
2023/07/21 16:12:40;;;;;;;374.75;351.00;;;16.90;72.10;;;;;;6261733;22;20029;-88
2023/07/21 16:15:07;;;;;;;317.48;297.92;;;16.90;71.50;;;;;;6236486;22;20042;-90
2023/07/21 16:17:33;;;;;;;303.55;285.60;;;16.80;70.00;;;;;;6214913;22;20027;-87
2023/07/21 16:19:59;;;;;;;354.67;332.25;;;16.80;69.80;;;;;;6232384;22;20053;-89
2023/07/21 16:22:25;;;;;;;314.17;294.95;;;16.70;69.10;;;;;;6255472;22;20020;-88
2023/07/21 16:24:51;;;;;;;309.65;291.45;;;16.60;69.30;;;;;;6256498;22;20110;-89
2023/07/21 16:27:22;;;;;;;318.20;299.58;;;16.60;69.20;;;;;;6251409;22;20016;-87
2023/07/21 16:29:48;;;;;;;167.15;157.07;;;16.60;69.60;;;;;;6231288;22;20024;-88
2023/07/21 16:32:16;;;;;;;283.08;266.45;;;16.60;69.30;;;;;;6230378;22;20020;-91
2023/07/21 16:34:42;;;;;;;302.33;284.10;;;16.60;68.80;;;;;;6233708;22;20584;-91
2023/07/21 16:37:08;;;;;;;305.88;287.85;;;16.70;69.20;;;;;;6226426;22;20050;-88
2023/07/21 16:39:34;;;;;;;303.95;285.60;;;16.90;69.20;;;;;;6206230;22;20055;-89
2023/07/21 16:42:01;;;;;;;309.50;291.40;;;17.00;68.80;;;;;;6258438;22;20027;-90
2023/07/21 16:44:29;;;;;;;302.27;284.63;;;17.10;68.70;;;;;;6230427;22;20088;-88
2023/07/21 16:46:57;;;;;;;315.38;296.58;;;17.20;68.40;;;;;;6254741;22;20684;-88
2023/07/21 16:49:24;;;;;;;283.98;267.70;;;17.20;68.20;;;;;;6181788;22;20342;-89
2023/07/21 16:51:51;;;;;;;303.33;285.38;;;17.10;67.60;;;;;;6205990;22;20938;-88
2023/07/21 16:54:16;;;;;;;280.88;264.58;;;17.10;67.80;;;;;;6187992;22;20406;-90
2023/07/21 16:56:42;;;;;;;311.63;293.00;;;17.10;68.10;;;;;;6203540;22;20020;-92
2023/07/21 16:59:22;;;;;;;312.10;293.70;;;17.10;68.20;;;;;;6219499;22;20031;-93
2023/07/21 17:01:48;;;;;;;337.10;315.90;;;17.10;68.40;;;;;;6233573;22;20019;-87
2023/07/21 17:04:14;;;;;;;336.70;316.45;;;17.10;68.00;;;;;;6179751;22;20428;-89
2023/07/21 17:06:40;;;;;;;332.02;312.02;;;17.00;68.20;;;;;;6253335;22;20026;-90
2023/07/21 17:09:05;;;;;;;309.08;290.55;;;16.90;68.20;;;;;;6228044;22;20385;-87
2023/07/21 17:11:32;;;;;;;323.55;303.55;;;16.80;68.10;;;;;;6231473;22;20118;-89
2023/07/21 17:13:57;;;;;;;200.27;188.63;;;16.70;68.20;;;;;;6256009;22;20429;-87
2023/07/21 17:16:26;;;;;;;346.70;325.77;;;16.60;68.60;;;;;;6225740;22;20019;-88
2023/07/21 17:18:54;;;;;;;292.13;274.80;;;16.60;68.80;;;;;;6210689;22;20089;-86
2023/07/21 17:21:23;;;;;;;350.42;328.65;;;16.70;69.10;;;;;;6228348;22;20046;-88
2023/07/21 17:23:49;;;;;;;307.58;289.17;;;16.70;69.10;;;;;;6215783;22;20773;-88
2023/07/21 17:26:18;;;;;;;335.73;315.08;;;16.90;69.00;;;;;;6229190;22;20027;-91
2023/07/21 17:28:48;;;;;;;313.35;294.65;;;17.00;67.80;;;;;;6223739;22;20066;-89
2023/07/21 17:31:13;;;;;;;312.02;293.65;;;17.00;67.80;;;;;;6257671;22;20020;-86
2023/07/21 17:33:42;;;;;;;325.35;306.20;;;16.90;67.60;;;;;;6221048;22;20023;-91
2023/07/21 17:36:11;;;;;;;183.13;172.32;;;16.80;67.90;;;;;;6208562;22;20019;-90
2023/07/21 17:38:37;;;;;;;323.05;303.52;;;16.70;68.20;;;;;;6230610;22;20024;-90
2023/07/21 17:41:06;;;;;;;309.58;291.05;;;16.60;68.30;;;;;;6233310;22;20022;-91
2023/07/21 17:43:34;;;;;;;321.02;301.70;;;16.60;68.40;;;;;;6245447;22;20215;-89
2023/07/21 17:46:02;;;;;;;289.52;273.00;;;16.50;68.60;;;;;;6258329;22;20093;-88
2023/07/21 17:48:28;;;;;;;305.15;286.58;;;16.40;68.90;;;;;;6188700;22;20027;-89
2023/07/21 17:51:00;;;;;;;322.92;303.27;;;16.40;69.00;;;;;;6235843;22;20019;-93
2023/07/21 17:53:28;;;;;;;185.20;174.65;;;16.40;69.00;;;;;;6209052;22;20528;-93
2023/07/21 17:55:57;;;;;;;305.00;287.23;;;16.40;69.30;;;;;;6184156;22;20797;-92
2023/07/21 17:58:26;;;;;;;313.33;294.77;;;16.30;69.10;;;;;;6179590;22;20032;-93
2023/07/21 18:00:52;;;;;;;290.50;273.10;;;16.20;69.00;;;;;;6185696;22;20484;-91
2023/07/21 18:03:18;;;;;;;345.88;324.20;;;16.10;69.00;;;;;;6232905;22;20032;-91
2023/07/21 18:05:55;;;;;;;301.20;283.40;;;16.10;69.00;;;;;;6235405;22;20019;-89
2023/07/21 18:08:22;;;;;;;267.73;252.02;;;16.00;69.20;;;;;;6255273;22;20432;-90
2023/07/21 18:10:50;;;;;;;294.05;276.50;;;16.00;69.20;;;;;;6232588;22;20017;-90
2023/07/21 18:13:25;;;;;;;299.98;282.08;;;16.00;69.40;;;;;;6232284;22;20019;-91
2023/07/21 18:15:55;;;;;;;316.83;297.58;;;15.90;70.10;;;;;;6232919;22;20073;-90
2023/07/21 18:18:22;;;;;;;304.95;286.73;;;15.80;70.30;;;;;;6225573;22;20106;-89
2023/07/21 18:21:05;;;;;;;317.02;297.90;;;15.60;70.70;;;;;;6258951;22;20016;-90
2023/07/21 18:23:32;;;;;;;306.92;288.58;;;15.50;71.60;;;;;;6221349;22;20448;-90
2023/07/21 18:25:59;;;;;;;315.23;296.27;;;15.30;71.80;;;;;;6233053;22;20124;-92
2023/07/21 18:28:27;;;;;;;328.80;309.08;;;15.20;72.20;;;;;;6256027;22;20020;-89
2023/07/21 18:31:13;;;;;;;344.70;322.92;;;15.10;72.90;;;;;;6211730;22;20027;-92
2023/07/21 18:34:14;;;;;;;332.58;312.00;;;15.00;73.40;;;;;;6225537;22;20042;-93
2023/07/21 18:37:14;;;;;;;348.25;327.35;;;14.90;73.50;;;;;;6256712;22;20684;-92
2023/07/21 18:40:03;;;;;;;322.80;303.40;;;14.80;74.10;;;;;;6236295;22;20020;-93
2023/07/21 18:42:30;;;;;;;344.80;323.80;;;14.80;74.00;;;;;;6191472;23;20024;-88
2023/07/21 18:45:42;;;;;;;;;;;;;;;;;;;;;
2023/07/21 18:48:11;;;;;;;322.00;302.60;;;14.60;75.20;;;;;;6232289;22;20023;-89
2023/07/21 18:50:36;;;;;;;199.02;187.35;;;14.50;75.20;;;;;;6238343;22;20827;-91
2023/07/21 18:53:08;;;;;;;357.42;334.88;;;14.50;75.70;;;;;;6260577;22;20461;-92
2023/07/21 18:55:41;;;;;;;354.55;332.80;;;14.50;76.00;;;;;;6262987;22;20015;-90
2023/07/21 18:58:22;;;;;;;375.27;351.13;;;14.50;76.20;;;;;;6184125;23;20111;-92
2023/07/21 19:01:40;;;;;;;345.05;323.50;;;14.50;76.40;;;;;;6199394;22;20027;-94
2023/07/21 19:04:24;;;;;;;309.95;291.45;;;14.50;77.10;;;;;;6210194;22;20027;-91
2023/07/21 19:07:11;;;;;;;;;;;;;;;;;;;;;
2023/07/21 19:09:58;;;;;;;320.98;301.88;;;14.50;76.90;;;;;;6217589;22;20024;-94
2023/07/21 19:12:51;;;;;;;320.33;300.55;;;14.50;77.30;;;;;;6232763;22;20028;-93
2023/07/21 19:15:30;;;;;;;;;;;;;;;;;;;;;
2023/07/21 19:22:53;;;;;;;318.08;298.95;;;14.40;77.20;;;;;;6035203;23;20076;-92
2023/07/21 19:25:18;;;;;;;300.05;282.05;;;14.30;77.30;;;;;;5917487;24;20036;-89
2023/07/21 19:28:21;;;;;;;;;;;;;;;;;;;;;
2023/07/21 19:30:47;;;;;;;295.58;278.05;;;14.20;76.90;;;;;;5938839;24;20484;-91
2023/07/21 19:34:05;;;;;;;343.58;322.58;;;14.20;76.90;;;;;;6110525;23;20048;-92
2023/07/21 19:36:37;;;;;;;280.23;263.70;;;14.20;77.20;;;;;;6222124;22;20012;-92
2023/07/21 19:39:05;;;;;;;;;;;14.10;76.60;;;;;;6219513;22;20347;-90
2023/07/21 19:41:36;;;;;;;241.88;227.68;;;14.10;76.40;;;;;;6245181;22;19950;-91
2023/07/21 19:44:04;;;;;;;294.67;277.48;;;14.00;76.20;;;;;;6182253;22;20051;-90
2023/07/21 19:46:31;;;;;;;307.63;288.88;;;14.00;76.10;;;;;;6216071;22;20015;-91
2023/07/21 19:49:04;;;;;;;306.08;287.98;;;14.00;76.00;;;;;;6241773;22;20093;-89
2023/07/21 19:51:30;;;;;;;257.95;242.80;;;13.90;75.90;;;;;;6245019;22;20498;-88
2023/07/21 19:54:04;;;;;;;300.33;282.77;;;13.90;76.10;;;;;;6161439;22;20489;-91
2023/07/21 19:56:39;;;;;;;279.55;262.85;;;13.90;76.00;;;;;;6212600;22;20667;-92